createdAt,value
2019-04-20T00:01:12.623Z,85.60
2019-04-20T00:03:43.525Z,87.60
2019-04-20T00:06:13.139Z,86.30
2019-04-20T00:08:44.688Z,89.40
2019-04-20T00:11:24.276Z,88.20
2019-04-20T00:13:59.374Z,88.50
2019-04-20T00:16:20.949Z,89.10
2019-04-20T00:18:55.291Z,88.00
2019-04-20T00:21:46.973Z,87.90
2019-04-20T00:24:24.787Z,86.80
2019-04-20T00:29:41.100Z,88.10
2019-04-20T00:32:03.030Z,87.30
2019-04-20T00:34:30.046Z,86.90
2019-04-20T00:36:58.140Z,86.40
2019-04-20T00:39:28.152Z,86.40
2019-04-20T00:42:03.493Z,86.70
2019-04-20T00:44:34.089Z,87.30
2019-04-20T00:47:12.059Z,89.70
2019-04-20T00:49:50.886Z,91.20
2019-04-20T00:52:29.105Z,89.50
2019-04-20T00:54:36.944Z,89.00
2019-04-20T00:57:17.681Z,89.80
2019-04-20T00:59:59.222Z,90.70
2019-04-20T01:02:25.702Z,88.50
2019-04-20T01:04:58.231Z,89.30
2019-04-20T01:07:41.239Z,88.90
2019-04-20T01:10:07.365Z,88.20
2019-04-20T01:12:40.491Z,88.80
2019-04-20T01:15:16.746Z,88.00
2019-04-20T01:17:43.132Z,88.00
2019-04-20T01:20:14.298Z,87.60
2019-04-20T01:22:52.136Z,87.10
2019-04-20T01:25:24.831Z,86.60
2019-04-20T01:28:10.273Z,86.60
2019-04-20T01:30:28.391Z,87.80
2019-04-20T01:33:08.790Z,87.10
2019-04-20T01:35:48.019Z,87.00
2019-04-20T01:38:18.227Z,86.50
2019-04-20T01:40:29.599Z,86.80
2019-04-20T01:42:59.818Z,86.70
2019-04-20T01:45:35.673Z,86.80
2019-04-20T01:48:04.024Z,86.20
2019-04-20T01:50:37.150Z,86.30
2019-04-20T01:53:19.008Z,86.90
2019-04-20T01:55:53.069Z,86.40
2019-04-20T01:58:49.134Z,87.70
2019-04-20T02:01:35.468Z,87.40
2019-04-20T02:04:16.952Z,88.90
2019-04-20T02:06:47.215Z,88.90
2019-04-20T02:09:17.212Z,90.10
2019-04-20T02:11:50.232Z,90.30
2019-04-20T02:14:26.657Z,92.60
2019-04-20T02:16:56.544Z,92.10
2019-04-20T02:19:34.679Z,94.60
2019-04-20T02:22:08.842Z,97.20
2019-04-20T02:24:25.897Z,95.80
2019-04-20T02:26:56.118Z,99.50
2019-04-20T02:29:50.965Z,98.80
2019-04-20T02:35:11.588Z,99.90
2019-04-20T02:40:31.906Z,99.90
2019-04-20T02:42:59.868Z,99.80
2019-04-20T02:45:40.344Z,99.20
2019-04-20T02:48:07.687Z,99.90
2019-04-20T02:50:34.056Z,99.90
2019-04-20T02:53:06.209Z,99.90
2019-04-20T02:55:50.032Z,99.90
2019-04-20T02:58:05.227Z,99.90
2019-04-20T03:00:31.410Z,99.90
2019-04-20T03:02:48.701Z,99.90
2019-04-20T03:05:22.956Z,99.90
2019-04-20T03:08:01.144Z,99.90
2019-04-20T03:10:44.556Z,99.90
2019-04-20T03:13:09.787Z,99.90
2019-04-20T03:15:38.260Z,99.90
2019-04-20T03:18:10.215Z,99.90
2019-04-20T03:20:41.759Z,99.90
2019-04-20T03:23:23.498Z,99.90
2019-04-20T03:26:06.385Z,99.90
2019-04-20T03:28:54.295Z,99.90
2019-04-20T03:34:23.148Z,99.90
2019-04-20T03:36:43.084Z,99.90
2019-04-20T03:39:07.007Z,99.90
2019-04-20T03:41:26.130Z,99.90
2019-04-20T03:43:49.794Z,99.90
2019-04-20T03:46:31.064Z,99.90
2019-04-20T03:49:11.860Z,99.90
2019-04-20T03:51:46.757Z,99.90
2019-04-20T03:54:34.671Z,99.90
2019-04-20T03:57:34.375Z,99.90
2019-04-20T04:00:36.199Z,99.90
2019-04-20T04:03:29.392Z,99.90
2019-04-20T04:05:51.872Z,99.90
2019-04-20T04:08:21.836Z,99.90
2019-04-20T04:11:02.988Z,99.90
2019-04-20T04:13:16.968Z,99.90
2019-04-20T04:15:56.792Z,99.90
2019-04-20T04:18:29.731Z,99.90
2019-04-20T04:21:01.069Z,99.90
2019-04-20T04:23:44.785Z,99.90
2019-04-20T04:26:16.079Z,99.90
2019-04-20T04:28:46.257Z,99.90
2019-04-20T04:31:23.248Z,99.90
2019-04-20T04:34:25.022Z,99.90
2019-04-20T04:36:22.186Z,99.90
2019-04-20T04:38:58.859Z,99.90
2019-04-20T04:41:26.633Z,99.90
2019-04-20T04:44:00.120Z,99.90
2019-04-20T04:46:14.487Z,99.90
2019-04-20T04:48:48.261Z,99.90
2019-04-20T04:51:22.929Z,99.90
2019-04-20T04:53:58.030Z,99.90
2019-04-20T04:56:41.717Z,99.90
2019-04-20T04:59:12.790Z,99.90
2019-04-20T05:01:47.799Z,99.90
2019-04-20T05:04:33.265Z,99.90
2019-04-20T05:07:03.508Z,99.90
2019-04-20T05:09:20.442Z,99.90
2019-04-20T05:11:59.938Z,99.90
2019-04-20T05:14:37.455Z,99.90
2019-04-20T05:17:11.421Z,99.90
2019-04-20T05:19:47.624Z,99.90
2019-04-20T05:22:26.151Z,99.90
2019-04-20T05:25:11.959Z,99.90
2019-04-20T05:27:51.263Z,99.90
2019-04-20T05:30:05.702Z,99.90
2019-04-20T05:32:44.643Z,99.90
2019-04-20T05:35:36.087Z,99.90
2019-04-20T05:38:06.822Z,99.90
2019-04-20T05:40:35.218Z,99.90
2019-04-20T05:43:13.136Z,99.90
2019-04-20T05:45:41.378Z,99.90
2019-04-20T05:48:11.853Z,99.90
2019-04-20T05:50:48.258Z,99.90
2019-04-20T05:53:19.283Z,99.90
2019-04-20T05:55:51.524Z,99.90
2019-04-20T05:58:26.082Z,99.90
2019-04-20T06:01:00.233Z,99.90
2019-04-20T06:03:28.871Z,99.90
2019-04-20T06:06:03.221Z,99.90
2019-04-20T06:08:47.970Z,99.90
2019-04-20T06:11:08.055Z,99.90
2019-04-20T06:13:44.290Z,99.90
2019-04-20T06:16:29.895Z,99.90
2019-04-20T06:19:18.232Z,99.90
2019-04-20T06:22:03.460Z,99.90
2019-04-20T06:24:42.061Z,99.90
2019-04-20T06:27:06.246Z,99.90
2019-04-20T06:29:34.912Z,99.90
2019-04-20T06:32:14.011Z,99.90
2019-04-20T06:34:36.840Z,99.90
2019-04-20T06:37:10.199Z,99.90
2019-04-20T06:42:18.087Z,99.90
2019-04-20T06:44:48.239Z,99.90
2019-04-20T06:47:35.674Z,99.90
2019-04-20T06:49:53.270Z,99.90
2019-04-20T06:52:27.666Z,99.90
2019-04-20T06:55:23.415Z,99.90
2019-04-20T06:57:54.752Z,99.90
2019-04-20T07:00:23.180Z,99.90
2019-04-20T07:03:01.810Z,99.90
2019-04-20T07:05:33.134Z,99.90
2019-04-20T07:08:16.661Z,99.90
2019-04-20T07:10:37.706Z,99.90
2019-04-20T07:13:04.699Z,99.90
2019-04-20T07:15:46.287Z,99.90
2019-04-20T07:18:26.484Z,99.90
2019-04-20T07:21:04.262Z,99.90
2019-04-20T07:23:32.702Z,99.90
2019-04-20T07:26:13.839Z,99.90
2019-04-20T07:28:41.347Z,99.90
2019-04-20T07:31:08.690Z,99.90
2019-04-20T07:33:39.366Z,99.90
2019-04-20T07:36:20.045Z,99.90
2019-04-20T07:38:52.471Z,99.90
2019-04-20T07:41:23.221Z,99.90
2019-04-20T07:43:58.997Z,99.90
2019-04-20T07:46:35.177Z,99.90
2019-04-20T07:48:54.082Z,99.90
2019-04-20T07:51:15.690Z,99.90
2019-04-20T07:54:06.515Z,99.90
2019-04-20T07:56:30.529Z,99.90
2019-04-20T07:58:50.936Z,99.90
2019-04-20T08:01:54.217Z,99.90
2019-04-20T08:04:32.408Z,99.90
2019-04-20T08:06:53.943Z,99.90
2019-04-20T08:09:34.914Z,99.90
2019-04-20T08:12:29.277Z,99.90
2019-04-20T08:14:57.520Z,99.90
2019-04-20T08:17:31.407Z,99.90
2019-04-20T08:19:59.551Z,99.90
2019-04-20T08:22:33.845Z,99.90
2019-04-20T08:25:00.324Z,99.90
2019-04-20T08:27:18.401Z,99.90
2019-04-20T08:30:09.147Z,99.90
2019-04-20T08:33:09.537Z,99.90
2019-04-20T08:35:52.506Z,99.90
2019-04-20T08:40:49.900Z,99.90
2019-04-20T08:43:37.881Z,98.60
2019-04-20T08:45:52.734Z,99.50
2019-04-20T08:48:31.379Z,97.80
2019-04-20T08:50:58.439Z,95.40
2019-04-20T08:53:34.702Z,96.50
2019-04-20T08:55:55.353Z,96.50
2019-04-20T08:58:13.869Z,95.40
2019-04-20T09:00:49.999Z,93.60
2019-04-20T09:03:24.965Z,94.30
2019-04-20T09:05:59.509Z,94.60
2019-04-20T09:08:29.536Z,93.30
2019-04-20T09:11:09.751Z,92.90
2019-04-20T09:13:35.318Z,90.70
2019-04-20T09:15:58.313Z,89.10
2019-04-20T09:18:43.270Z,90.40
2019-04-20T09:21:15.156Z,90.40
2019-04-20T09:23:57.687Z,87.00
2019-04-20T09:26:32.741Z,86.80
2019-04-20T09:29:05.638Z,90.10
2019-04-20T09:31:46.997Z,90.20
2019-04-20T09:34:36.986Z,86.20
2019-04-20T09:37:29.594Z,79.20
2019-04-20T09:40:21.241Z,79.10
2019-04-20T09:43:06.694Z,76.50
2019-04-20T09:45:55.505Z,75.50
2019-04-20T09:48:31.342Z,74.70
2019-04-20T09:51:14.562Z,75.10
2019-04-20T09:53:39.227Z,73.70
2019-04-20T09:56:14.447Z,70.50
2019-04-20T09:58:53.391Z,69.10
2019-04-20T10:01:13.519Z,71.80
2019-04-20T10:03:32.606Z,60.30
2019-04-20T10:06:03.409Z,63.20
2019-04-20T10:08:40.378Z,56.20
2019-04-20T10:11:06.009Z,55.00
2019-04-20T10:13:36.384Z,60.20
2019-04-20T10:16:07.943Z,58.40
2019-04-20T10:18:41.396Z,58.10
2019-04-20T10:21:11.695Z,61.30
2019-04-20T10:23:44.866Z,61.90
2019-04-20T10:26:14.651Z,59.40
2019-04-20T10:28:45.827Z,59.20
2019-04-20T10:31:16.769Z,62.00
2019-04-20T10:33:47.277Z,59.00
2019-04-20T10:36:39.676Z,57.00
2019-04-20T10:39:12.885Z,58.40
2019-04-20T10:41:50.587Z,57.80
2019-04-20T10:44:16.653Z,55.90
2019-04-20T10:46:47.102Z,57.20
2019-04-20T10:49:17.571Z,56.20
2019-04-20T10:51:48.297Z,56.40
2019-04-20T10:54:20.436Z,54.70
2019-04-20T10:56:51.939Z,56.90
2019-04-20T10:59:23.460Z,55.60
2019-04-20T11:02:03.595Z,55.30
2019-04-20T11:04:34.587Z,53.30
2019-04-20T11:07:04.868Z,53.30
2019-04-20T11:09:36.532Z,51.60
2019-04-20T11:12:08.603Z,51.90
2019-04-20T11:14:43.481Z,54.10
2019-04-20T11:17:12.233Z,54.00
2019-04-20T11:19:43.384Z,52.40
2019-04-20T11:22:14.533Z,50.80
2019-04-20T11:24:46.061Z,51.20
2019-04-20T11:27:16.435Z,51.20
2019-04-20T11:29:46.981Z,51.10
2019-04-20T11:32:18.022Z,50.40
2019-04-20T11:34:49.186Z,53.20
2019-04-20T11:37:19.464Z,49.80
2019-04-20T11:39:50.796Z,51.00
2019-04-20T11:42:21.719Z,51.60
2019-04-20T11:44:52.894Z,50.30
2019-04-20T11:47:23.108Z,51.10
2019-04-20T11:49:53.466Z,49.40
2019-04-20T11:52:25.412Z,48.70
2019-04-20T11:54:56.512Z,49.40
2019-04-20T11:57:27.198Z,48.90
2019-04-20T11:59:57.468Z,48.60
2019-04-20T12:02:53.847Z,47.60
2019-04-20T12:05:32.423Z,47.50
2019-04-20T12:08:00.735Z,47.00
2019-04-20T12:10:31.865Z,45.30
2019-04-20T12:13:03.806Z,44.80
2019-04-20T12:15:38.581Z,44.10
2019-04-20T12:18:09.558Z,42.90
2019-04-20T12:20:40.932Z,45.10
2019-04-20T12:23:12.573Z,45.90
2019-04-20T12:25:44.619Z,45.90
2019-04-20T12:28:15.759Z,44.90
2019-04-20T12:30:46.134Z,43.30
2019-04-20T12:33:17.805Z,46.30
2019-04-20T12:35:48.353Z,47.30
2019-04-20T12:38:19.106Z,45.50
2019-04-20T12:40:50.336Z,43.20
2019-04-20T12:43:20.628Z,43.70
2019-04-20T12:45:51.702Z,42.90
2019-04-20T12:48:22.058Z,43.20
2019-04-20T12:50:53.302Z,40.30
2019-04-20T12:53:24.536Z,41.10
2019-04-20T12:55:54.837Z,42.90
2019-04-20T12:58:26.329Z,40.20
2019-04-20T13:00:58.392Z,41.40
2019-04-20T13:03:29.755Z,43.20
2019-04-20T13:06:01.698Z,41.50
2019-04-20T13:08:36.643Z,41.40
2019-04-20T13:11:10.959Z,40.20
2019-04-20T13:13:52.568Z,41.80
2019-04-20T13:16:30.358Z,40.20
2019-04-20T13:19:03.529Z,41.10
2019-04-20T13:21:34.849Z,37.70
2019-04-20T13:24:06.755Z,40.30
2019-04-20T13:26:37.564Z,40.60
2019-04-20T13:29:08.771Z,36.50
2019-04-20T13:31:40.117Z,36.90
2019-04-20T13:34:10.352Z,38.60
2019-04-20T13:36:40.625Z,36.80
2019-04-20T13:39:12.128Z,36.60
2019-04-20T13:41:43.035Z,35.00
2019-04-20T13:44:15.772Z,35.90
2019-04-20T13:46:47.118Z,35.10
2019-04-20T13:49:18.756Z,37.70
2019-04-20T13:51:50.832Z,39.30
2019-04-20T13:54:24.970Z,41.00
2019-04-20T13:56:55.715Z,40.80
2019-04-20T13:59:33.919Z,39.60
2019-04-20T14:02:13.750Z,38.40
2019-04-20T14:04:50.951Z,33.60
2019-04-20T14:07:22.040Z,34.80
2019-04-20T14:09:53.461Z,35.20
2019-04-20T14:12:30.627Z,34.70
2019-04-20T14:14:57.174Z,33.90
2019-04-20T14:17:28.886Z,34.20
2019-04-20T14:20:04.301Z,33.70
2019-04-20T14:22:33.341Z,34.00
2019-04-20T14:25:04.934Z,36.00
2019-04-20T14:27:37.092Z,35.80
2019-04-20T14:30:08.966Z,37.50
2019-04-20T14:32:40.819Z,35.30
2019-04-20T14:35:11.620Z,33.10
2019-04-20T14:37:42.099Z,32.60
2019-04-20T14:40:12.758Z,34.80
2019-04-20T14:42:48.584Z,33.10
2019-04-20T14:45:16.490Z,35.60
2019-04-20T14:47:47.744Z,33.40
2019-04-20T14:50:20.003Z,35.50
2019-04-20T14:52:51.416Z,35.70
2019-04-20T14:55:22.615Z,34.60
2019-04-20T14:57:53.700Z,32.90
2019-04-20T15:00:43.727Z,34.40
2019-04-20T15:03:42.598Z,34.30
2019-04-20T15:06:13.728Z,35.00
2019-04-20T15:08:44.906Z,34.60
2019-04-20T15:11:14.962Z,35.40
2019-04-20T15:13:44.985Z,32.00
2019-04-20T15:16:16.929Z,34.80
2019-04-20T15:19:07.442Z,35.60
2019-04-20T15:21:38.092Z,37.50
2019-04-20T15:24:09.264Z,36.80
2019-04-20T15:26:40.413Z,38.50
2019-04-20T15:29:12.439Z,38.40
2019-04-20T15:31:43.782Z,36.90
2019-04-20T15:34:15.056Z,38.00
2019-04-20T15:36:46.174Z,38.80
2019-04-20T15:39:16.891Z,40.30
2019-04-20T15:41:47.301Z,38.50
2019-04-20T15:44:17.534Z,38.50
2019-04-20T15:46:48.633Z,37.80
2019-04-20T15:49:22.134Z,39.60
2019-04-20T15:51:52.229Z,42.60
2019-04-20T15:54:23.223Z,40.30
2019-04-20T15:56:59.065Z,42.60
2019-04-20T15:59:26.504Z,40.70
2019-04-20T16:02:03.002Z,44.50
2019-04-20T16:05:10.254Z,42.30
2019-04-20T16:07:50.178Z,43.50
2019-04-20T16:10:12.963Z,46.40
2019-04-20T16:12:43.233Z,42.40
2019-04-20T16:15:13.646Z,41.90
2019-04-20T16:17:47.827Z,42.90
2019-04-20T16:20:20.217Z,42.40
2019-04-20T16:22:48.909Z,45.70
2019-04-20T16:25:27.635Z,44.60
2019-04-20T16:27:59.446Z,45.10
2019-04-20T16:30:29.855Z,46.40
2019-04-20T16:33:00.762Z,44.20
2019-04-20T16:35:32.205Z,44.10
2019-04-20T16:38:02.614Z,42.00
2019-04-20T16:40:33.586Z,41.70
2019-04-20T16:43:15.827Z,44.30
2019-04-20T16:45:37.132Z,45.50
2019-04-20T16:48:10.509Z,43.40
2019-04-20T16:50:42.622Z,43.60
2019-04-20T16:53:13.090Z,43.50
2019-04-20T16:55:43.299Z,42.30
2019-04-20T16:58:13.708Z,42.60
2019-04-20T17:00:45.507Z,43.20
2019-04-20T17:03:17.225Z,43.70
2019-04-20T17:05:51.297Z,43.70
2019-04-20T17:08:20.931Z,45.00
2019-04-20T17:10:51.717Z,44.70
2019-04-20T17:13:31.922Z,43.40
2019-04-20T17:15:55.358Z,43.20
2019-04-20T17:18:25.784Z,44.40
2019-04-20T17:20:56.741Z,46.00
2019-04-20T17:23:27.614Z,46.90
2019-04-20T17:25:59.848Z,48.40
2019-04-20T17:28:46.933Z,47.20
2019-04-20T17:31:27.069Z,48.40
2019-04-20T17:34:11.477Z,48.80
2019-04-20T17:36:36.660Z,48.10
2019-04-20T17:39:10.478Z,49.60
2019-04-20T17:41:54.552Z,48.30
2019-04-20T17:44:28.763Z,48.80
2019-04-20T17:46:58.185Z,49.20
2019-04-20T17:49:29.382Z,51.20
2019-04-20T17:52:14.261Z,49.60
2019-04-20T17:54:39.676Z,50.00
2019-04-20T17:57:11.213Z,49.60
2019-04-20T17:59:51.159Z,48.90
2019-04-20T18:02:55.931Z,49.30
2019-04-20T18:05:32.791Z,50.10
2019-04-20T18:08:04.141Z,49.50
2019-04-20T18:10:34.277Z,49.40
2019-04-20T18:12:52.859Z,52.00
2019-04-20T18:15:35.934Z,51.20
2019-04-20T18:18:28.309Z,49.90
2019-04-20T18:21:14.849Z,49.60
2019-04-20T18:23:48.575Z,49.50
2019-04-20T18:26:37.879Z,51.20
2019-04-20T18:29:16.683Z,52.40
2019-04-20T18:31:47.284Z,50.00
2019-04-20T18:34:27.004Z,50.40
2019-04-20T18:36:56.392Z,49.10
2019-04-20T18:39:34.662Z,48.80
2019-04-20T18:42:11.098Z,49.60
2019-04-20T18:44:54.603Z,52.50
2019-04-20T18:47:23.633Z,55.80
2019-04-20T18:49:46.561Z,52.90
2019-04-20T18:52:09.327Z,53.30
2019-04-20T18:54:43.819Z,53.80
2019-04-20T18:57:18.006Z,53.70
2019-04-20T18:59:50.410Z,55.00
2019-04-20T19:02:20.235Z,52.30
2019-04-20T19:04:48.121Z,54.50
2019-04-20T19:07:19.758Z,54.70
2019-04-20T19:09:55.220Z,55.90
2019-04-20T19:12:31.146Z,57.40
2019-04-20T19:15:35.028Z,57.00
2019-04-20T19:18:19.116Z,55.90
2019-04-20T19:20:45.356Z,55.30
2019-04-20T19:23:16.883Z,56.80
2019-04-20T19:25:47.845Z,56.80
2019-04-20T19:28:21.654Z,57.50
2019-04-20T19:31:08.027Z,57.10
2019-04-20T19:33:35.652Z,57.30
2019-04-20T19:36:10.596Z,58.40
2019-04-20T19:38:37.997Z,58.70
2019-04-20T19:41:16.074Z,59.70
2019-04-20T19:43:39.946Z,60.70
2019-04-20T19:46:39.315Z,62.60
2019-04-20T19:48:45.031Z,62.70
2019-04-20T19:51:31.000Z,66.00
2019-04-20T19:53:59.803Z,66.50
2019-04-20T19:56:32.372Z,65.20
2019-04-20T19:58:58.926Z,64.10
2019-04-20T20:01:17.714Z,63.70
2019-04-20T20:03:55.762Z,66.20
2019-04-20T20:06:29.397Z,68.50
2019-04-20T20:08:57.950Z,68.10
2019-04-20T20:11:30.463Z,68.70
2019-04-20T20:13:58.612Z,69.00
2019-04-20T20:16:50.451Z,69.80
2019-04-20T20:19:09.745Z,68.70
2019-04-20T20:21:46.542Z,71.00
2019-04-20T20:24:04.260Z,70.40
2019-04-20T20:26:40.667Z,70.80
2019-04-20T20:29:19.721Z,71.90
2019-04-20T20:31:53.982Z,72.50
2019-04-20T20:34:24.728Z,74.30
2019-04-20T20:36:53.842Z,74.50
2019-04-20T20:39:24.249Z,75.60
2019-04-20T20:42:01.602Z,75.80
2019-04-20T20:44:36.036Z,75.30
2019-04-20T20:47:10.680Z,76.70
2019-04-20T20:49:48.656Z,76.70
2019-04-20T20:52:17.333Z,79.00
2019-04-20T20:54:47.802Z,79.60
2019-04-20T20:57:11.625Z,80.30
2019-04-20T20:59:49.634Z,79.90
2019-04-20T21:02:15.798Z,81.40
2019-04-20T21:04:43.746Z,82.60
2019-04-20T21:07:14.265Z,81.80
2019-04-20T21:09:46.075Z,83.10
2019-04-20T21:12:18.682Z,81.30
2019-04-20T21:14:49.134Z,82.70
2019-04-20T21:17:23.698Z,85.50
2019-04-20T21:20:08.566Z,82.80
2019-04-20T21:22:44.778Z,83.60
2019-04-20T21:24:56.883Z,84.80
2019-04-20T21:27:27.690Z,83.30
2019-04-20T21:29:59.962Z,82.50
2019-04-20T21:32:35.084Z,84.30
2019-04-20T21:35:06.511Z,84.10
2019-04-20T21:37:34.731Z,86.00
2019-04-20T21:40:16.668Z,88.60
2019-04-20T21:42:44.343Z,88.30
2019-04-20T21:45:19.796Z,90.20
2019-04-20T21:47:44.728Z,89.10
2019-04-20T21:50:30.018Z,86.90
2019-04-20T21:52:50.442Z,88.80
2019-04-20T21:55:19.511Z,88.50
2019-04-20T21:57:53.970Z,86.80
2019-04-20T22:00:56.055Z,85.20
2019-04-20T22:03:20.420Z,84.10
2019-04-20T22:05:52.551Z,88.30
2019-04-20T22:08:24.177Z,86.60
2019-04-20T22:10:55.457Z,86.40
2019-04-20T22:13:32.411Z,86.80
2019-04-20T22:16:03.556Z,87.40
2019-04-20T22:18:31.801Z,84.50
2019-04-20T22:21:12.306Z,85.20
2019-04-20T22:23:53.092Z,85.30
2019-04-20T22:26:18.785Z,83.40
2019-04-20T22:28:38.558Z,84.50
2019-04-20T22:31:09.579Z,84.00
2019-04-20T22:33:41.874Z,84.40
2019-04-20T22:36:14.403Z,84.30
2019-04-20T22:39:05.361Z,85.70
2019-04-20T22:41:40.560Z,86.20
2019-04-20T22:44:15.130Z,83.40
2019-04-20T22:46:44.459Z,86.00
2019-04-20T22:49:33.027Z,87.50
2019-04-20T22:51:58.493Z,85.10
2019-04-20T22:54:36.423Z,83.20
2019-04-20T22:57:02.316Z,90.20
2019-04-20T22:59:30.404Z,83.70
2019-04-20T23:01:59.944Z,82.90
2019-04-20T23:04:26.653Z,84.30
2019-04-20T23:06:59.003Z,81.80
2019-04-20T23:09:32.815Z,81.60
2019-04-20T23:12:08.082Z,80.70
2019-04-20T23:14:34.312Z,80.80
2019-04-20T23:17:06.224Z,80.90
2019-04-20T23:19:45.706Z,80.60
2019-04-20T23:22:11.991Z,80.50
2019-04-20T23:24:41.612Z,80.90
2019-04-20T23:27:19.817Z,80.90
2019-04-20T23:29:45.216Z,81.90
2019-04-20T23:32:17.466Z,81.50
2019-04-20T23:34:49.047Z,80.60
2019-04-20T23:37:26.181Z,80.00
2019-04-20T23:39:52.776Z,80.60
2019-04-20T23:42:33.641Z,79.10
2019-04-20T23:45:35.478Z,78.90
2019-04-20T23:48:07.143Z,79.20
2019-04-20T23:50:56.928Z,79.70
2019-04-20T23:53:27.311Z,80.40
2019-04-20T23:55:41.593Z,79.50
2019-04-20T23:58:14.733Z,81.80
